sensor_id;sensor_type;location;lat;lon;timestamp;P1;durP1;ratioP1;P2;durP2;ratioP2
19165;SDS011;9715;48.816;10.520;2022-07-09T00:02:18;5.22;;;1.75;;
19165;SDS011;9715;48.816;10.520;2022-07-09T00:04:48;5.68;;;1.58;;
19165;SDS011;9715;48.816;10.520;2022-07-09T00:07:16;4.03;;;1.67;;
19165;SDS011;9715;48.816;10.520;2022-07-09T00:09:45;3.08;;;1.60;;
19165;SDS011;9715;48.816;10.520;2022-07-09T00:12:13;7.30;;;2.25;;
19165;SDS011;9715;48.816;10.520;2022-07-09T00:14:42;4.28;;;2.15;;
19165;SDS011;9715;48.816;10.520;2022-07-09T00:17:10;5.35;;;1.85;;
19165;SDS011;9715;48.816;10.520;2022-07-09T00:19:38;6.55;;;1.88;;
19165;SDS011;9715;48.816;10.520;2022-07-09T00:22:08;4.18;;;1.55;;
19165;SDS011;9715;48.816;10.520;2022-07-09T00:24:36;3.30;;;1.77;;
19165;SDS011;9715;48.816;10.520;2022-07-09T00:27:05;4.65;;;1.70;;
19165;SDS011;9715;48.816;10.520;2022-07-09T00:29:33;4.57;;;1.92;;
19165;SDS011;9715;48.816;10.520;2022-07-09T00:32:02;5.45;;;2.58;;
19165;SDS011;9715;48.816;10.520;2022-07-09T00:34:31;5.70;;;2.25;;
19165;SDS011;9715;48.816;10.520;2022-07-09T00:36:59;5.18;;;2.30;;
19165;SDS011;9715;48.816;10.520;2022-07-09T00:39:29;7.53;;;2.75;;
19165;SDS011;9715;48.816;10.520;2022-07-09T00:42:01;5.35;;;2.40;;
19165;SDS011;9715;48.816;10.520;2022-07-09T00:44:31;4.55;;;2.13;;
19165;SDS011;9715;48.816;10.520;2022-07-09T00:46:59;5.57;;;2.38;;
19165;SDS011;9715;48.816;10.520;2022-07-09T00:49:28;4.82;;;1.92;;
19165;SDS011;9715;48.816;10.520;2022-07-09T00:51:58;4.03;;;1.60;;
19165;SDS011;9715;48.816;10.520;2022-07-09T00:54:27;3.50;;;1.50;;
19165;SDS011;9715;48.816;10.520;2022-07-09T00:56:57;3.95;;;1.80;;
19165;SDS011;9715;48.816;10.520;2022-07-09T00:59:26;2.80;;;1.40;;
19165;SDS011;9715;48.816;10.520;2022-07-09T01:01:54;4.30;;;1.58;;
19165;SDS011;9715;48.816;10.520;2022-07-09T01:04:23;6.22;;;2.05;;
19165;SDS011;9715;48.816;10.520;2022-07-09T01:06:52;9.07;;;1.67;;
19165;SDS011;9715;48.816;10.520;2022-07-09T01:09:20;3.42;;;1.60;;
19165;SDS011;9715;48.816;10.520;2022-07-09T01:11:48;2.35;;;1.40;;
19165;SDS011;9715;48.816;10.520;2022-07-09T01:14:19;3.65;;;1.67;;
19165;SDS011;9715;48.816;10.520;2022-07-09T01:16:47;2.78;;;1.50;;
19165;SDS011;9715;48.816;10.520;2022-07-09T01:19:25;5.55;;;1.58;;
19165;SDS011;9715;48.816;10.520;2022-07-09T01:21:55;3.63;;;1.50;;
19165;SDS011;9715;48.816;10.520;2022-07-09T01:24:31;5.82;;;1.58;;
19165;SDS011;9715;48.816;10.520;2022-07-09T01:27:00;5.45;;;1.25;;
19165;SDS011;9715;48.816;10.520;2022-07-09T01:29:29;1.50;;;1.15;;
19165;SDS011;9715;48.816;10.520;2022-07-09T01:31:58;5.13;;;1.65;;
19165;SDS011;9715;48.816;10.520;2022-07-09T01:34:26;3.00;;;1.50;;
19165;SDS011;9715;48.816;10.520;2022-07-09T01:36:56;3.33;;;1.55;;
19165;SDS011;9715;48.816;10.520;2022-07-09T01:39:24;6.07;;;2.10;;
19165;SDS011;9715;48.816;10.520;2022-07-09T01:41:53;5.35;;;1.70;;
19165;SDS011;9715;48.816;10.520;2022-07-09T01:44:21;3.60;;;1.58;;
19165;SDS011;9715;48.816;10.520;2022-07-09T01:46:49;5.30;;;1.65;;
19165;SDS011;9715;48.816;10.520;2022-07-09T01:49:18;4.30;;;1.73;;
19165;SDS011;9715;48.816;10.520;2022-07-09T01:51:46;7.50;;;2.00;;
19165;SDS011;9715;48.816;10.520;2022-07-09T01:54:16;4.68;;;1.73;;
19165;SDS011;9715;48.816;10.520;2022-07-09T01:56:45;4.70;;;1.90;;
19165;SDS011;9715;48.816;10.520;2022-07-09T01:59:13;4.32;;;1.80;;
19165;SDS011;9715;48.816;10.520;2022-07-09T02:01:41;4.50;;;1.83;;
19165;SDS011;9715;48.816;10.520;2022-07-09T02:04:10;5.22;;;1.88;;
19165;SDS011;9715;48.816;10.520;2022-07-09T02:06:38;4.18;;;1.73;;
19165;SDS011;9715;48.816;10.520;2022-07-09T02:09:06;5.20;;;2.00;;
19165;SDS011;9715;48.816;10.520;2022-07-09T02:11:36;4.47;;;1.70;;
19165;SDS011;9715;48.816;10.520;2022-07-09T02:14:04;4.00;;;1.80;;
19165;SDS011;9715;48.816;10.520;2022-07-09T02:16:32;4.35;;;1.77;;
19165;SDS011;9715;48.816;10.520;2022-07-09T02:19:01;3.03;;;1.80;;
19165;SDS011;9715;48.816;10.520;2022-07-09T02:21:29;5.00;;;1.45;;
19165;SDS011;9715;48.816;10.520;2022-07-09T02:23:58;2.08;;;1.70;;
19165;SDS011;9715;48.816;10.520;2022-07-09T02:26:26;5.40;;;1.90;;
19165;SDS011;9715;48.816;10.520;2022-07-09T02:28:57;4.65;;;1.60;;
19165;SDS011;9715;48.816;10.520;2022-07-09T02:31:26;2.90;;;1.77;;
19165;SDS011;9715;48.816;10.520;2022-07-09T02:33:54;5.18;;;1.80;;
19165;SDS011;9715;48.816;10.520;2022-07-09T02:36:23;3.80;;;1.80;;
19165;SDS011;9715;48.816;10.520;2022-07-09T02:38:51;3.67;;;1.90;;
19165;SDS011;9715;48.816;10.520;2022-07-09T02:41:19;2.80;;;1.60;;
19165;SDS011;9715;48.816;10.520;2022-07-09T02:43:47;6.30;;;1.70;;
19165;SDS011;9715;48.816;10.520;2022-07-09T02:46:17;4.00;;;1.88;;
19165;SDS011;9715;48.816;10.520;2022-07-09T02:48:45;3.60;;;1.42;;
19165;SDS011;9715;48.816;10.520;2022-07-09T02:51:14;5.82;;;1.75;;
19165;SDS011;9715;48.816;10.520;2022-07-09T02:53:42;2.78;;;1.40;;
19165;SDS011;9715;48.816;10.520;2022-07-09T02:56:10;3.53;;;1.50;;
19165;SDS011;9715;48.816;10.520;2022-07-09T02:58:38;2.03;;;1.60;;
19165;SDS011;9715;48.816;10.520;2022-07-09T03:01:06;2.88;;;1.38;;
19165;SDS011;9715;48.816;10.520;2022-07-09T03:03:36;3.15;;;1.50;;
19165;SDS011;9715;48.816;10.520;2022-07-09T03:06:05;2.53;;;1.40;;
19165;SDS011;9715;48.816;10.520;2022-07-09T03:08:34;4.05;;;1.77;;
19165;SDS011;9715;48.816;10.520;2022-07-09T03:11:03;3.35;;;1.60;;
19165;SDS011;9715;48.816;10.520;2022-07-09T03:13:33;4.35;;;1.80;;
19165;SDS011;9715;48.816;10.520;2022-07-09T03:16:01;3.85;;;1.58;;
19165;SDS011;9715;48.816;10.520;2022-07-09T03:18:30;2.90;;;1.98;;
19165;SDS011;9715;48.816;10.520;2022-07-09T03:20:59;2.65;;;1.30;;
19165;SDS011;9715;48.816;10.520;2022-07-09T03:23:28;2.30;;;1.50;;
19165;SDS011;9715;48.816;10.520;2022-07-09T03:25:56;4.93;;;1.52;;
19165;SDS011;9715;48.816;10.520;2022-07-09T03:28:26;5.80;;;1.42;;
19165;SDS011;9715;48.816;10.520;2022-07-09T03:30:54;2.65;;;1.60;;
19165;SDS011;9715;48.816;10.520;2022-07-09T03:33:23;3.50;;;1.55;;
19165;SDS011;9715;48.816;10.520;2022-07-09T03:35:51;3.45;;;1.40;;
19165;SDS011;9715;48.816;10.520;2022-07-09T03:38:22;2.95;;;1.33;;
19165;SDS011;9715;48.816;10.520;2022-07-09T03:40:51;2.17;;;1.33;;
19165;SDS011;9715;48.816;10.520;2022-07-09T03:43:19;4.05;;;1.50;;
19165;SDS011;9715;48.816;10.520;2022-07-09T03:45:47;4.55;;;1.60;;
19165;SDS011;9715;48.816;10.520;2022-07-09T03:48:16;3.22;;;1.70;;
19165;SDS011;9715;48.816;10.520;2022-07-09T03:50:45;3.17;;;1.73;;
19165;SDS011;9715;48.816;10.520;2022-07-09T03:53:13;5.50;;;1.75;;
19165;SDS011;9715;48.816;10.520;2022-07-09T03:55:43;4.20;;;1.65;;
19165;SDS011;9715;48.816;10.520;2022-07-09T03:58:11;6.05;;;1.80;;
19165;SDS011;9715;48.816;10.520;2022-07-09T04:00:40;5.00;;;2.00;;
19165;SDS011;9715;48.816;10.520;2022-07-09T04:03:08;6.55;;;1.77;;
19165;SDS011;9715;48.816;10.520;2022-07-09T04:05:36;5.53;;;1.80;;
19165;SDS011;9715;48.816;10.520;2022-07-09T04:08:05;7.10;;;2.10;;
19165;SDS011;9715;48.816;10.520;2022-07-09T04:10:33;4.85;;;1.95;;
19165;SDS011;9715;48.816;10.520;2022-07-09T04:13:03;3.65;;;2.00;;
19165;SDS011;9715;48.816;10.520;2022-07-09T04:15:39;4.82;;;2.10;;
19165;SDS011;9715;48.816;10.520;2022-07-09T04:18:08;4.50;;;1.80;;
19165;SDS011;9715;48.816;10.520;2022-07-09T04:20:36;3.78;;;1.80;;
19165;SDS011;9715;48.816;10.520;2022-07-09T04:23:04;3.40;;;1.67;;
19165;SDS011;9715;48.816;10.520;2022-07-09T04:25:32;2.85;;;1.55;;
19165;SDS011;9715;48.816;10.520;2022-07-09T04:28:01;4.88;;;1.67;;
19165;SDS011;9715;48.816;10.520;2022-07-09T04:30:31;4.32;;;1.63;;
19165;SDS011;9715;48.816;10.520;2022-07-09T04:33:00;2.97;;;1.58;;
19165;SDS011;9715;48.816;10.520;2022-07-09T04:35:28;4.10;;;1.55;;
19165;SDS011;9715;48.816;10.520;2022-07-09T04:37:56;3.55;;;1.52;;
19165;SDS011;9715;48.816;10.520;2022-07-09T04:40:25;5.22;;;1.90;;
19165;SDS011;9715;48.816;10.520;2022-07-09T04:42:53;6.82;;;1.90;;
19165;SDS011;9715;48.816;10.520;2022-07-09T04:45:21;4.85;;;1.80;;
19165;SDS011;9715;48.816;10.520;2022-07-09T04:47:51;3.80;;;1.60;;
19165;SDS011;9715;48.816;10.520;2022-07-09T04:50:19;2.75;;;1.63;;
19165;SDS011;9715;48.816;10.520;2022-07-09T04:52:47;4.40;;;1.77;;
19165;SDS011;9715;48.816;10.520;2022-07-09T04:55:16;2.90;;;1.67;;
19165;SDS011;9715;48.816;10.520;2022-07-09T04:57:45;3.38;;;1.80;;
19165;SDS011;9715;48.816;10.520;2022-07-09T05:00:14;3.40;;;1.55;;
19165;SDS011;9715;48.816;10.520;2022-07-09T05:02:43;6.78;;;2.13;;
19165;SDS011;9715;48.816;10.520;2022-07-09T05:05:13;4.57;;;1.88;;
19165;SDS011;9715;48.816;10.520;2022-07-09T05:07:42;5.93;;;1.88;;
19165;SDS011;9715;48.816;10.520;2022-07-09T05:10:10;7.60;;;2.13;;
19165;SDS011;9715;48.816;10.520;2022-07-09T05:12:38;3.53;;;1.98;;
19165;SDS011;9715;48.816;10.520;2022-07-09T05:15:07;4.68;;;1.80;;
19165;SDS011;9715;48.816;10.520;2022-07-09T05:17:37;5.55;;;2.15;;
19165;SDS011;9715;48.816;10.520;2022-07-09T05:20:06;4.80;;;2.20;;
19165;SDS011;9715;48.816;10.520;2022-07-09T05:22:37;5.53;;;1.95;;
19165;SDS011;9715;48.816;10.520;2022-07-09T05:25:06;13.13;;;2.50;;
19165;SDS011;9715;48.816;10.520;2022-07-09T05:27:40;6.72;;;1.98;;
19165;SDS011;9715;48.816;10.520;2022-07-09T05:30:09;5.32;;;2.17;;
19165;SDS011;9715;48.816;10.520;2022-07-09T05:32:45;6.07;;;2.10;;
19165;SDS011;9715;48.816;10.520;2022-07-09T05:35:13;10.70;;;2.30;;
19165;SDS011;9715;48.816;10.520;2022-07-09T05:37:45;6.57;;;2.10;;
19165;SDS011;9715;48.816;10.520;2022-07-09T05:40:13;6.35;;;1.88;;
19165;SDS011;9715;48.816;10.520;2022-07-09T05:42:42;4.28;;;1.95;;
19165;SDS011;9715;48.816;10.520;2022-07-09T05:45:10;8.15;;;1.88;;
19165;SDS011;9715;48.816;10.520;2022-07-09T05:47:38;5.75;;;2.22;;
19165;SDS011;9715;48.816;10.520;2022-07-09T05:50:07;9.20;;;2.63;;
19165;SDS011;9715;48.816;10.520;2022-07-09T05:52:36;4.85;;;1.95;;
19165;SDS011;9715;48.816;10.520;2022-07-09T05:55:07;4.13;;;1.80;;
19165;SDS011;9715;48.816;10.520;2022-07-09T05:57:36;4.72;;;1.80;;
19165;SDS011;9715;48.816;10.520;2022-07-09T06:00:04;3.45;;;1.75;;
19165;SDS011;9715;48.816;10.520;2022-07-09T06:02:33;5.28;;;2.10;;
19165;SDS011;9715;48.816;10.520;2022-07-09T06:05:02;4.40;;;1.85;;
19165;SDS011;9715;48.816;10.520;2022-07-09T06:07:30;3.58;;;1.80;;
19165;SDS011;9715;48.816;10.520;2022-07-09T06:09:58;3.30;;;1.83;;
19165;SDS011;9715;48.816;10.520;2022-07-09T06:12:28;3.17;;;1.70;;
19165;SDS011;9715;48.816;10.520;2022-07-09T06:14:57;5.93;;;1.73;;
19165;SDS011;9715;48.816;10.520;2022-07-09T06:17:25;2.90;;;1.63;;
19165;SDS011;9715;48.816;10.520;2022-07-09T06:19:53;4.72;;;1.67;;
19165;SDS011;9715;48.816;10.520;2022-07-09T06:22:21;4.15;;;1.67;;
19165;SDS011;9715;48.816;10.520;2022-07-09T06:24:49;3.60;;;1.58;;
19165;SDS011;9715;48.816;10.520;2022-07-09T06:27:18;3.42;;;1.90;;
19165;SDS011;9715;48.816;10.520;2022-07-09T06:29:47;3.65;;;1.73;;
19165;SDS011;9715;48.816;10.520;2022-07-09T06:32:16;3.03;;;1.10;;
19165;SDS011;9715;48.816;10.520;2022-07-09T06:34:44;3.15;;;1.30;;
19165;SDS011;9715;48.816;10.520;2022-07-09T06:37:12;4.60;;;1.20;;
19165;SDS011;9715;48.816;10.520;2022-07-09T06:39:40;3.33;;;1.30;;
19165;SDS011;9715;48.816;10.520;2022-07-09T06:42:12;3.38;;;1.30;;
19165;SDS011;9715;48.816;10.520;2022-07-09T06:44:42;6.35;;;1.50;;
19165;SDS011;9715;48.816;10.520;2022-07-09T06:47:13;9.20;;;1.73;;
19165;SDS011;9715;48.816;10.520;2022-07-09T06:49:41;6.65;;;1.60;;
19165;SDS011;9715;48.816;10.520;2022-07-09T06:52:09;3.72;;;1.30;;
19165;SDS011;9715;48.816;10.520;2022-07-09T06:54:37;6.13;;;1.55;;
19165;SDS011;9715;48.816;10.520;2022-07-09T06:57:06;2.45;;;1.20;;
19165;SDS011;9715;48.816;10.520;2022-07-09T06:59:36;7.63;;;1.40;;
19165;SDS011;9715;48.816;10.520;2022-07-09T07:02:04;3.85;;;1.55;;
19165;SDS011;9715;48.816;10.520;2022-07-09T07:04:34;7.57;;;1.15;;
19165;SDS011;9715;48.816;10.520;2022-07-09T07:07:03;3.58;;;1.10;;
19165;SDS011;9715;48.816;10.520;2022-07-09T07:09:31;4.80;;;1.25;;
19165;SDS011;9715;48.816;10.520;2022-07-09T07:12:00;2.47;;;1.10;;
19165;SDS011;9715;48.816;10.520;2022-07-09T07:14:28;4.93;;;1.38;;
19165;SDS011;9715;48.816;10.520;2022-07-09T07:16:56;3.38;;;1.23;;
19165;SDS011;9715;48.816;10.520;2022-07-09T07:19:24;3.85;;;1.38;;
19165;SDS011;9715;48.816;10.520;2022-07-09T07:21:55;6.05;;;1.60;;
19165;SDS011;9715;48.816;10.520;2022-07-09T07:24:23;2.80;;;1.40;;
19165;SDS011;9715;48.816;10.520;2022-07-09T07:26:51;2.47;;;1.20;;
19165;SDS011;9715;48.816;10.520;2022-07-09T07:29:20;3.15;;;1.20;;
19165;SDS011;9715;48.816;10.520;2022-07-09T07:31:48;6.05;;;1.40;;
19165;SDS011;9715;48.816;10.520;2022-07-09T07:34:17;4.75;;;1.55;;
19165;SDS011;9715;48.816;10.520;2022-07-09T07:36:48;3.35;;;1.05;;
19165;SDS011;9715;48.816;10.520;2022-07-09T07:39:19;6.07;;;1.30;;
19165;SDS011;9715;48.816;10.520;2022-07-09T07:41:48;3.60;;;1.10;;
19165;SDS011;9715;48.816;10.520;2022-07-09T07:44:17;2.28;;;1.02;;
19165;SDS011;9715;48.816;10.520;2022-07-09T07:46:45;1.00;;;0.90;;
19165;SDS011;9715;48.816;10.520;2022-07-09T07:49:14;3.22;;;1.10;;
19165;SDS011;9715;48.816;10.520;2022-07-09T07:51:42;3.00;;;1.05;;
19165;SDS011;9715;48.816;10.520;2022-07-09T07:54:10;1.90;;;1.10;;
19165;SDS011;9715;48.816;10.520;2022-07-09T07:56:40;1.73;;;1.08;;
19165;SDS011;9715;48.816;10.520;2022-07-09T07:59:09;4.45;;;1.10;;
19165;SDS011;9715;48.816;10.520;2022-07-09T08:01:37;2.63;;;1.20;;
19165;SDS011;9715;48.816;10.520;2022-07-09T08:04:06;3.90;;;0.90;;
19165;SDS011;9715;48.816;10.520;2022-07-09T08:06:34;2.65;;;1.00;;
19165;SDS011;9715;48.816;10.520;2022-07-09T08:09:03;3.53;;;1.15;;
19165;SDS011;9715;48.816;10.520;2022-07-09T08:11:31;1.80;;;0.90;;
19165;SDS011;9715;48.816;10.520;2022-07-09T08:14:01;2.67;;;0.88;;
19165;SDS011;9715;48.816;10.520;2022-07-09T08:16:29;1.95;;;1.02;;
19165;SDS011;9715;48.816;10.520;2022-07-09T08:18:58;2.67;;;0.88;;
19165;SDS011;9715;48.816;10.520;2022-07-09T08:21:26;2.72;;;0.90;;
19165;SDS011;9715;48.816;10.520;2022-07-09T08:23:55;5.13;;;1.25;;
19165;SDS011;9715;48.816;10.520;2022-07-09T08:26:26;2.65;;;1.00;;
19165;SDS011;9715;48.816;10.520;2022-07-09T08:28:56;2.03;;;0.70;;
19165;SDS011;9715;48.816;10.520;2022-07-09T08:31:25;2.17;;;0.98;;
19165;SDS011;9715;48.816;10.520;2022-07-09T08:33:54;2.47;;;0.80;;
19165;SDS011;9715;48.816;10.520;2022-07-09T08:36:22;2.50;;;0.90;;
19165;SDS011;9715;48.816;10.520;2022-07-09T08:38:51;5.70;;;0.82;;
19165;SDS011;9715;48.816;10.520;2022-07-09T08:41:19;1.58;;;0.88;;
19165;SDS011;9715;48.816;10.520;2022-07-09T08:43:52;3.00;;;0.77;;
19165;SDS011;9715;48.816;10.520;2022-07-09T08:46:21;3.05;;;0.80;;
19165;SDS011;9715;48.816;10.520;2022-07-09T08:48:51;9.68;;;0.82;;
19165;SDS011;9715;48.816;10.520;2022-07-09T08:51:21;1.75;;;0.60;;
19165;SDS011;9715;48.816;10.520;2022-07-09T08:53:51;3.40;;;0.90;;
19165;SDS011;9715;48.816;10.520;2022-07-09T08:56:21;3.10;;;0.88;;
19165;SDS011;9715;48.816;10.520;2022-07-09T08:58:50;1.95;;;0.82;;
19165;SDS011;9715;48.816;10.520;2022-07-09T09:01:18;1.67;;;0.75;;
19165;SDS011;9715;48.816;10.520;2022-07-09T09:03:46;2.08;;;0.85;;
19165;SDS011;9715;48.816;10.520;2022-07-09T09:06:20;2.80;;;0.80;;
19165;SDS011;9715;48.816;10.520;2022-07-09T09:08:52;2.17;;;0.68;;
19165;SDS011;9715;48.816;10.520;2022-07-09T09:11:23;3.50;;;0.80;;
19165;SDS011;9715;48.816;10.520;2022-07-09T09:13:53;2.30;;;0.82;;
19165;SDS011;9715;48.816;10.520;2022-07-09T09:16:21;1.85;;;0.82;;
19165;SDS011;9715;48.816;10.520;2022-07-09T09:18:50;3.90;;;1.23;;
19165;SDS011;9715;48.816;10.520;2022-07-09T09:21:21;1.60;;;0.80;;
19165;SDS011;9715;48.816;10.520;2022-07-09T09:23:51;3.40;;;0.65;;
19165;SDS011;9715;48.816;10.520;2022-07-09T09:26:21;2.40;;;0.85;;
19165;SDS011;9715;48.816;10.520;2022-07-09T09:28:51;1.85;;;0.77;;
19165;SDS011;9715;48.816;10.520;2022-07-09T09:31:22;1.38;;;0.73;;
19165;SDS011;9715;48.816;10.520;2022-07-09T09:33:52;4.13;;;0.77;;
19165;SDS011;9715;48.816;10.520;2022-07-09T09:36:30;1.02;;;0.60;;
19165;SDS011;9715;48.816;10.520;2022-07-09T09:39:11;4.25;;;0.95;;
19165;SDS011;9715;48.816;10.520;2022-07-09T09:41:41;3.38;;;0.80;;
19165;SDS011;9715;48.816;10.520;2022-07-09T09:44:11;2.60;;;0.60;;
19165;SDS011;9715;48.816;10.520;2022-07-09T09:46:41;2.45;;;0.55;;
19165;SDS011;9715;48.816;10.520;2022-07-09T09:49:11;1.27;;;0.80;;
19165;SDS011;9715;48.816;10.520;2022-07-09T09:51:45;1.75;;;0.80;;
19165;SDS011;9715;48.816;10.520;2022-07-09T09:54:18;2.33;;;0.80;;
19165;SDS011;9715;48.816;10.520;2022-07-09T09:56:48;1.10;;;0.60;;
19165;SDS011;9715;48.816;10.520;2022-07-09T09:59:17;3.70;;;0.68;;
19165;SDS011;9715;48.816;10.520;2022-07-09T10:01:45;1.55;;;0.50;;
19165;SDS011;9715;48.816;10.520;2022-07-09T10:04:14;2.47;;;0.63;;
19165;SDS011;9715;48.816;10.520;2022-07-09T10:06:44;0.90;;;0.65;;
19165;SDS011;9715;48.816;10.520;2022-07-09T10:09:13;1.13;;;0.70;;
19165;SDS011;9715;48.816;10.520;2022-07-09T10:11:42;1.20;;;0.60;;
19165;SDS011;9715;48.816;10.520;2022-07-09T10:14:15;0.55;;;0.55;;
19165;SDS011;9715;48.816;10.520;2022-07-09T10:16:45;1.33;;;0.73;;
19165;SDS011;9715;48.816;10.520;2022-07-09T10:22:00;1.98;;;0.70;;
19165;SDS011;9715;48.816;10.520;2022-07-09T10:24:30;1.35;;;0.60;;
19165;SDS011;9715;48.816;10.520;2022-07-09T10:27:03;0.95;;;0.68;;
19165;SDS011;9715;48.816;10.520;2022-07-09T10:29:33;2.58;;;0.95;;
19165;SDS011;9715;48.816;10.520;2022-07-09T10:32:03;1.70;;;0.57;;
19165;SDS011;9715;48.816;10.520;2022-07-09T10:34:48;1.55;;;0.60;;
19165;SDS011;9715;48.816;10.520;2022-07-09T10:37:33;1.40;;;0.68;;
19165;SDS011;9715;48.816;10.520;2022-07-09T10:40:09;1.50;;;0.60;;
19165;SDS011;9715;48.816;10.520;2022-07-09T10:42:39;2.03;;;0.80;;
19165;SDS011;9715;48.816;10.520;2022-07-09T10:45:15;1.13;;;0.60;;
19165;SDS011;9715;48.816;10.520;2022-07-09T10:47:55;8.00;;;0.88;;
19165;SDS011;9715;48.816;10.520;2022-07-09T10:50:24;0.65;;;0.60;;
19165;SDS011;9715;48.816;10.520;2022-07-09T10:52:55;2.30;;;0.80;;
19165;SDS011;9715;48.816;10.520;2022-07-09T10:55:26;1.83;;;0.88;;
19165;SDS011;9715;48.816;10.520;2022-07-09T10:57:55;2.05;;;0.80;;
19165;SDS011;9715;48.816;10.520;2022-07-09T11:00:25;2.97;;;0.90;;
19165;SDS011;9715;48.816;10.520;2022-07-09T11:02:56;2.83;;;1.00;;
19165;SDS011;9715;48.816;10.520;2022-07-09T11:05:25;1.38;;;0.70;;
19165;SDS011;9715;48.816;10.520;2022-07-09T11:08:03;3.88;;;0.90;;
19165;SDS011;9715;48.816;10.520;2022-07-09T11:10:35;1.80;;;0.80;;
19165;SDS011;9715;48.816;10.520;2022-07-09T11:13:05;2.80;;;0.88;;
19165;SDS011;9715;48.816;10.520;2022-07-09T11:15:35;1.25;;;0.65;;
19165;SDS011;9715;48.816;10.520;2022-07-09T11:18:05;1.08;;;0.70;;
19165;SDS011;9715;48.816;10.520;2022-07-09T11:20:36;1.08;;;0.80;;
19165;SDS011;9715;48.816;10.520;2022-07-09T11:23:07;2.67;;;0.90;;
19165;SDS011;9715;48.816;10.520;2022-07-09T11:25:36;1.75;;;0.80;;
19165;SDS011;9715;48.816;10.520;2022-07-09T11:28:05;1.80;;;0.98;;
19165;SDS011;9715;48.816;10.520;2022-07-09T11:30:39;2.90;;;0.90;;
19165;SDS011;9715;48.816;10.520;2022-07-09T11:33:07;3.60;;;0.90;;
19165;SDS011;9715;48.816;10.520;2022-07-09T11:35:39;1.98;;;0.82;;
19165;SDS011;9715;48.816;10.520;2022-07-09T11:38:13;1.75;;;1.00;;
19165;SDS011;9715;48.816;10.520;2022-07-09T11:40:41;3.42;;;0.90;;
19165;SDS011;9715;48.816;10.520;2022-07-09T11:43:13;3.55;;;0.80;;
19165;SDS011;9715;48.816;10.520;2022-07-09T11:45:51;1.38;;;0.70;;
19165;SDS011;9715;48.816;10.520;2022-07-09T11:48:20;1.95;;;0.90;;
19165;SDS011;9715;48.816;10.520;2022-07-09T11:50:49;1.85;;;0.90;;
19165;SDS011;9715;48.816;10.520;2022-07-09T11:53:20;2.33;;;0.88;;
19165;SDS011;9715;48.816;10.520;2022-07-09T11:55:58;6.38;;;1.10;;
19165;SDS011;9715;48.816;10.520;2022-07-09T11:58:27;2.97;;;0.90;;
19165;SDS011;9715;48.816;10.520;2022-07-09T12:00:56;2.97;;;0.80;;
19165;SDS011;9715;48.816;10.520;2022-07-09T12:03:26;5.05;;;1.23;;
19165;SDS011;9715;48.816;10.520;2022-07-09T12:05:56;1.00;;;0.82;;
19165;SDS011;9715;48.816;10.520;2022-07-09T12:08:27;3.92;;;1.02;;
19165;SDS011;9715;48.816;10.520;2022-07-09T12:10:57;3.47;;;1.00;;
19165;SDS011;9715;48.816;10.520;2022-07-09T12:13:26;4.25;;;1.10;;
19165;SDS011;9715;48.816;10.520;2022-07-09T12:15:55;2.88;;;1.30;;
19165;SDS011;9715;48.816;10.520;2022-07-09T12:18:24;2.10;;;0.90;;
19165;SDS011;9715;48.816;10.520;2022-07-09T12:20:53;2.03;;;0.95;;
19165;SDS011;9715;48.816;10.520;2022-07-09T12:23:22;3.05;;;0.88;;
19165;SDS011;9715;48.816;10.520;2022-07-09T12:25:52;4.10;;;0.90;;
19165;SDS011;9715;48.816;10.520;2022-07-09T12:28:21;2.47;;;0.80;;
19165;SDS011;9715;48.816;10.520;2022-07-09T12:30:49;2.95;;;0.80;;
19165;SDS011;9715;48.816;10.520;2022-07-09T12:33:17;1.13;;;0.80;;
19165;SDS011;9715;48.816;10.520;2022-07-09T12:35:46;1.65;;;0.80;;
19165;SDS011;9715;48.816;10.520;2022-07-09T12:38:14;1.73;;;0.80;;
19165;SDS011;9715;48.816;10.520;2022-07-09T12:40:42;1.38;;;0.90;;
19165;SDS011;9715;48.816;10.520;2022-07-09T12:43:12;2.03;;;0.90;;
19165;SDS011;9715;48.816;10.520;2022-07-09T12:45:41;2.25;;;1.63;;
19165;SDS011;9715;48.816;10.520;2022-07-09T12:48:09;2.22;;;1.00;;
19165;SDS011;9715;48.816;10.520;2022-07-09T12:50:37;2.58;;;1.05;;
19165;SDS011;9715;48.816;10.520;2022-07-09T12:53:06;2.15;;;0.98;;
19165;SDS011;9715;48.816;10.520;2022-07-09T12:55:34;1.30;;;0.82;;
19165;SDS011;9715;48.816;10.520;2022-07-09T12:58:24;2.03;;;0.80;;
19165;SDS011;9715;48.816;10.520;2022-07-09T13:00:52;1.45;;;0.80;;
19165;SDS011;9715;48.816;10.520;2022-07-09T13:03:20;1.50;;;0.80;;
19165;SDS011;9715;48.816;10.520;2022-07-09T13:05:49;2.20;;;1.10;;
19165;SDS011;9715;48.816;10.520;2022-07-09T13:08:19;2.83;;;0.93;;
19165;SDS011;9715;48.816;10.520;2022-07-09T13:10:47;1.95;;;1.00;;
19165;SDS011;9715;48.816;10.520;2022-07-09T13:13:15;2.78;;;1.00;;
19165;SDS011;9715;48.816;10.520;2022-07-09T13:15:45;2.10;;;1.10;;
19165;SDS011;9715;48.816;10.520;2022-07-09T13:18:14;3.88;;;1.52;;
19165;SDS011;9715;48.816;10.520;2022-07-09T13:20:44;3.67;;;1.23;;
19165;SDS011;9715;48.816;10.520;2022-07-09T13:23:12;3.70;;;1.38;;
19165;SDS011;9715;48.816;10.520;2022-07-09T13:25:41;1.10;;;0.90;;
19165;SDS011;9715;48.816;10.520;2022-07-09T13:28:09;2.15;;;1.05;;
19165;SDS011;9715;48.816;10.520;2022-07-09T13:30:39;1.70;;;0.90;;
19165;SDS011;9715;48.816;10.520;2022-07-09T13:33:09;3.35;;;1.00;;
19165;SDS011;9715;48.816;10.520;2022-07-09T13:35:37;1.75;;;0.90;;
19165;SDS011;9715;48.816;10.520;2022-07-09T13:38:07;3.13;;;0.80;;
19165;SDS011;9715;48.816;10.520;2022-07-09T13:40:35;1.70;;;0.90;;
19165;SDS011;9715;48.816;10.520;2022-07-09T13:43:04;2.25;;;0.90;;
19165;SDS011;9715;48.816;10.520;2022-07-09T13:45:32;5.50;;;1.20;;
19165;SDS011;9715;48.816;10.520;2022-07-09T13:48:01;3.83;;;0.95;;
19165;SDS011;9715;48.816;10.520;2022-07-09T13:50:30;2.90;;;1.08;;
19165;SDS011;9715;48.816;10.520;2022-07-09T13:52:58;2.15;;;0.98;;
19165;SDS011;9715;48.816;10.520;2022-07-09T13:55:27;1.98;;;1.02;;
19165;SDS011;9715;48.816;10.520;2022-07-09T13:57:56;2.58;;;0.93;;
19165;SDS011;9715;48.816;10.520;2022-07-09T14:00:25;4.05;;;1.10;;
19165;SDS011;9715;48.816;10.520;2022-07-09T14:02:54;4.40;;;0.98;;
19165;SDS011;9715;48.816;10.520;2022-07-09T14:05:22;1.75;;;0.88;;
19165;SDS011;9715;48.816;10.520;2022-07-09T14:07:52;2.55;;;1.00;;
19165;SDS011;9715;48.816;10.520;2022-07-09T14:10:22;2.75;;;0.98;;
19165;SDS011;9715;48.816;10.520;2022-07-09T14:12:50;2.33;;;1.17;;
19165;SDS011;9715;48.816;10.520;2022-07-09T14:15:19;3.88;;;0.90;;
19165;SDS011;9715;48.816;10.520;2022-07-09T14:17:47;1.55;;;0.80;;
19165;SDS011;9715;48.816;10.520;2022-07-09T14:20:15;2.95;;;1.10;;
19165;SDS011;9715;48.816;10.520;2022-07-09T14:22:45;2.25;;;0.80;;
19165;SDS011;9715;48.816;10.520;2022-07-09T14:25:15;2.35;;;0.90;;
19165;SDS011;9715;48.816;10.520;2022-07-09T14:27:44;2.47;;;0.93;;
19165;SDS011;9715;48.816;10.520;2022-07-09T14:30:12;1.38;;;1.08;;
19165;SDS011;9715;48.816;10.520;2022-07-09T14:32:40;3.60;;;1.05;;
19165;SDS011;9715;48.816;10.520;2022-07-09T14:35:09;1.63;;;1.00;;
19165;SDS011;9715;48.816;10.520;2022-07-09T14:37:37;3.38;;;1.10;;
19165;SDS011;9715;48.816;10.520;2022-07-09T14:40:05;1.63;;;1.10;;
19165;SDS011;9715;48.816;10.520;2022-07-09T14:42:36;4.00;;;1.25;;
19165;SDS011;9715;48.816;10.520;2022-07-09T14:45:06;2.33;;;1.05;;
19165;SDS011;9715;48.816;10.520;2022-07-09T14:47:35;2.85;;;0.98;;
19165;SDS011;9715;48.816;10.520;2022-07-09T14:50:04;4.28;;;1.00;;
19165;SDS011;9715;48.816;10.520;2022-07-09T14:52:33;3.20;;;1.00;;
19165;SDS011;9715;48.816;10.520;2022-07-09T14:55:02;5.97;;;0.98;;
19165;SDS011;9715;48.816;10.520;2022-07-09T14:57:31;2.15;;;1.20;;
19165;SDS011;9715;48.816;10.520;2022-07-09T15:00:01;2.50;;;0.85;;
19165;SDS011;9715;48.816;10.520;2022-07-09T15:02:29;3.70;;;0.93;;
19165;SDS011;9715;48.816;10.520;2022-07-09T15:04:57;1.50;;;0.93;;